createdAt,value
2019-02-21T00:00:54.921Z,99283.87
2019-02-21T00:03:27.810Z,99286.86
2019-02-21T00:06:00.311Z,99291.90
2019-02-21T00:08:32.751Z,99290.28
2019-02-21T00:11:05.267Z,99295.02
2019-02-21T00:13:37.783Z,99291.30
2019-02-21T00:16:10.173Z,99294.20
2019-02-21T00:18:42.593Z,99288.75
2019-02-21T00:21:15.084Z,99285.44
2019-02-21T00:23:48.006Z,99282.22
2019-02-21T00:26:20.382Z,99284.59
2019-02-21T00:28:52.815Z,99283.20
2019-02-21T00:31:25.232Z,99282.83
2019-02-21T00:33:57.984Z,99277.60
2019-02-21T00:36:30.768Z,99281.39
2019-02-21T00:39:05.074Z,99280.09
2019-02-21T00:41:37.156Z,99282.70
2019-02-21T00:44:09.258Z,99278.91
2019-02-21T00:46:41.794Z,99284.38
2019-02-21T00:49:14.229Z,99285.09
2019-02-21T00:51:46.303Z,99289.34
2019-02-21T00:54:18.734Z,99294.22
2019-02-21T00:56:51.244Z,99298.62
2019-02-21T00:59:23.726Z,99299.26
2019-02-21T01:01:56.079Z,99303.03
2019-02-21T01:04:29.603Z,99301.05
2019-02-21T01:07:00.663Z,99297.94
2019-02-21T01:09:33.047Z,99301.11
2019-02-21T01:12:05.635Z,99295.19
2019-02-21T01:14:38.482Z,99302.89
2019-02-21T01:17:10.829Z,99298.56
2019-02-21T01:19:43.236Z,99306.73
2019-02-21T01:22:15.723Z,99305.50
2019-02-21T01:24:49.318Z,99314.37
2019-02-21T01:27:25.292Z,99312.39
2019-02-21T01:29:57.509Z,99316.70
2019-02-21T01:32:30.345Z,99304.01
2019-02-21T01:35:02.755Z,99303.50
2019-02-21T01:37:35.122Z,99303.12
2019-02-21T01:40:37.042Z,99299.20
2019-02-21T01:43:10.134Z,99297.77
2019-02-21T01:45:47.567Z,99300.87
2019-02-21T01:48:21.077Z,99300.43
2019-02-21T01:50:55.442Z,99297.00
2019-02-21T01:53:29.566Z,99297.42
2019-02-21T01:56:01.947Z,99289.66
2019-02-21T01:58:34.608Z,99296.94
2019-02-21T02:01:08.865Z,99296.47
2019-02-21T02:03:41.066Z,99285.25
2019-02-21T02:06:13.477Z,99295.67
2019-02-21T02:08:45.868Z,99292.00
2019-02-21T02:11:18.297Z,99290.13
2019-02-21T02:13:50.724Z,99295.80
2019-02-21T02:16:23.164Z,99294.08
2019-02-21T02:18:55.618Z,99298.42
2019-02-21T02:21:28.057Z,99291.42
2019-02-21T02:24:00.416Z,99292.84
2019-02-21T02:26:33.809Z,99298.28
2019-02-21T02:29:05.914Z,99293.94
2019-02-21T02:31:38.063Z,99301.75
2019-02-21T02:34:10.233Z,99298.41
2019-02-21T02:36:42.629Z,99293.56
2019-02-21T02:39:15.064Z,99300.91
2019-02-21T02:41:47.513Z,99296.52
2019-02-21T02:44:20.328Z,99295.08
2019-02-21T02:46:52.709Z,99291.89
2019-02-21T02:49:25.094Z,99292.72
2019-02-21T02:51:57.544Z,99289.86
2019-02-21T02:54:29.989Z,99293.14
2019-02-21T02:57:02.105Z,99297.78
2019-02-21T02:59:40.864Z,99302.44
2019-02-21T03:02:08.081Z,99301.38
2019-02-21T03:04:40.328Z,99309.14
2019-02-21T03:07:12.821Z,99312.05
2019-02-21T03:09:45.327Z,99310.69
2019-02-21T03:12:17.707Z,99315.96
2019-02-21T03:14:50.413Z,99310.95
2019-02-21T03:17:22.809Z,99322.86
2019-02-21T03:19:55.269Z,99319.09
2019-02-21T03:22:28.723Z,99320.45
2019-02-21T03:25:00.912Z,99320.84
2019-02-21T03:27:33.282Z,99327.48
2019-02-21T03:30:06.317Z,99327.75
2019-02-21T03:32:37.370Z,99327.38
2019-02-21T03:35:09.793Z,99319.27
2019-02-21T03:37:42.232Z,99322.10
2019-02-21T03:40:14.613Z,99325.14
2019-02-21T03:42:47.039Z,99325.89
2019-02-21T03:45:19.542Z,99322.75
2019-02-21T03:47:51.937Z,99320.17
2019-02-21T03:50:24.666Z,99321.30
2019-02-21T03:52:57.055Z,99324.73
2019-02-21T03:55:29.410Z,99323.05
2019-02-21T03:58:02.204Z,99315.52
2019-02-21T04:00:34.999Z,99314.98
2019-02-21T04:03:07.400Z,99309.82
2019-02-21T04:05:40.310Z,99317.08
2019-02-21T04:08:12.685Z,99322.02
2019-02-21T04:10:44.778Z,99325.19
2019-02-21T04:13:16.884Z,99322.58
2019-02-21T04:15:49.395Z,99324.16
2019-02-21T04:18:21.809Z,99325.45
2019-02-21T04:20:54.158Z,99323.02
2019-02-21T04:23:26.580Z,99328.49
2019-02-21T04:25:58.951Z,99330.75
2019-02-21T04:28:31.107Z,99325.48
2019-02-21T04:31:03.488Z,99329.81
2019-02-21T04:33:36.026Z,99330.92
2019-02-21T04:36:08.799Z,99329.71
2019-02-21T04:38:41.179Z,99330.87
2019-02-21T04:41:13.546Z,99327.20
2019-02-21T04:43:45.924Z,99324.55
2019-02-21T04:46:18.290Z,99331.08
2019-02-21T04:48:50.773Z,99328.27
2019-02-21T04:51:23.362Z,99328.09
2019-02-21T04:53:55.822Z,99326.81
2019-02-21T04:56:28.232Z,99332.39
2019-02-21T04:59:00.630Z,99335.95
2019-02-21T05:01:32.743Z,99342.09
2019-02-21T05:04:05.124Z,99343.68
2019-02-21T05:06:37.509Z,99348.94
2019-02-21T05:09:09.609Z,99345.57
2019-02-21T05:11:41.832Z,99342.96
2019-02-21T05:14:14.235Z,99341.02
2019-02-21T05:16:46.589Z,99348.13
2019-02-21T05:19:19.049Z,99348.72
2019-02-21T05:21:51.764Z,99342.73
2019-02-21T05:24:24.428Z,99338.58
2019-02-21T05:27:06.047Z,99340.36
2019-02-21T05:29:38.175Z,99337.28
2019-02-21T05:32:40.209Z,99337.00
2019-02-21T05:35:22.398Z,99339.22
2019-02-21T05:38:07.998Z,99336.78
2019-02-21T05:40:59.227Z,99339.54
2019-02-21T05:43:47.931Z,99335.64
2019-02-21T05:46:32.430Z,99331.33
2019-02-21T05:49:39.213Z,99328.09
2019-02-21T05:52:15.593Z,99330.16
2019-02-21T05:55:09.394Z,99323.16
2019-02-21T05:58:02.190Z,99327.77
2019-02-21T06:01:02.948Z,99326.48
2019-02-21T06:03:44.119Z,99321.48
2019-02-21T06:06:50.849Z,99320.61
2019-02-21T06:09:28.985Z,99322.28
2019-02-21T06:12:33.243Z,99331.08
2019-02-21T06:15:18.292Z,99332.89
2019-02-21T06:18:09.395Z,99327.44
2019-02-21T06:21:01.793Z,99342.36
2019-02-21T06:23:49.412Z,99346.00
2019-02-21T06:26:32.684Z,99347.42
2019-02-21T06:29:10.602Z,99355.86
2019-02-21T06:31:43.549Z,99356.78
2019-02-21T06:34:15.832Z,99356.52
2019-02-21T06:36:52.240Z,99354.60
2019-02-21T06:39:25.214Z,99354.56
2019-02-21T06:42:02.855Z,99349.76
2019-02-21T06:44:34.105Z,99359.04
2019-02-21T06:47:15.864Z,99367.15
2019-02-21T06:50:04.501Z,99366.50
2019-02-21T06:52:34.958Z,99365.35
2019-02-21T06:55:08.764Z,99367.09
2019-02-21T06:57:41.343Z,99379.22
2019-02-21T07:00:14.116Z,99378.84
2019-02-21T07:02:46.814Z,99387.44
2019-02-21T07:05:19.183Z,99398.52
2019-02-21T07:07:52.071Z,99394.72
2019-02-21T07:10:24.444Z,99397.08
2019-02-21T07:12:57.815Z,99384.27
2019-02-21T07:15:30.939Z,99390.67
2019-02-21T07:18:04.235Z,99391.66
2019-02-21T07:20:36.426Z,99385.11
2019-02-21T07:23:12.284Z,99383.93
2019-02-21T07:25:51.100Z,99388.45
2019-02-21T07:28:23.161Z,99388.88
2019-02-21T07:31:06.076Z,99389.43
2019-02-21T07:33:37.336Z,99386.64
2019-02-21T07:39:13.916Z,99392.66
2019-02-21T07:41:34.342Z,99392.43
2019-02-21T07:44:11.981Z,99404.31
2019-02-21T07:46:40.475Z,99403.91
2019-02-21T07:49:13.703Z,99403.55
2019-02-21T07:51:45.858Z,99412.03
2019-02-21T07:54:18.260Z,99402.38
2019-02-21T07:56:50.341Z,99400.10
2019-02-21T07:59:22.430Z,99412.36
2019-02-21T08:01:55.488Z,99404.73
2019-02-21T08:04:28.243Z,99408.46
2019-02-21T08:07:01.724Z,99399.37
2019-02-21T08:09:35.307Z,99407.81
2019-02-21T08:12:07.619Z,99404.20
2019-02-21T08:14:43.396Z,99402.36
2019-02-21T08:17:16.391Z,99398.99
2019-02-21T08:19:47.442Z,99399.52
2019-02-21T08:22:19.444Z,99406.45
2019-02-21T08:24:51.967Z,99406.93
2019-02-21T08:27:26.228Z,99404.19
2019-02-21T08:29:58.323Z,99405.05
2019-02-21T08:32:36.361Z,99399.05
2019-02-21T08:35:09.044Z,99402.12
2019-02-21T08:37:41.572Z,99401.91
2019-02-21T08:40:14.978Z,99399.80
2019-02-21T08:42:47.642Z,99395.55
2019-02-21T08:45:19.727Z,99402.16
2019-02-21T08:47:52.644Z,99410.95
2019-02-21T08:50:26.478Z,99410.98
2019-02-21T08:53:01.053Z,99413.00
2019-02-21T08:55:34.666Z,99408.44
2019-02-21T08:58:07.900Z,99400.25
2019-02-21T09:00:40.604Z,99407.43
2019-02-21T09:03:12.973Z,99407.45
2019-02-21T09:05:46.367Z,99396.52
2019-02-21T09:08:19.054Z,99394.68
2019-02-21T09:10:51.560Z,99392.66
2019-02-21T09:13:25.934Z,99396.67
2019-02-21T09:15:59.347Z,99400.63
2019-02-21T09:18:31.435Z,99395.58
2019-02-21T09:21:04.170Z,99398.12
2019-02-21T09:23:36.894Z,99403.58
2019-02-21T09:26:09.339Z,99399.52
2019-02-21T09:28:42.134Z,99395.88
2019-02-21T09:31:16.502Z,99391.80
2019-02-21T09:33:49.170Z,99400.55
2019-02-21T09:36:22.007Z,99396.03
2019-02-21T09:38:54.390Z,99396.76
2019-02-21T09:41:30.406Z,99393.72
2019-02-21T09:44:03.122Z,99392.19
2019-02-21T09:46:35.420Z,99397.27
2019-02-21T09:49:07.822Z,99393.50
2019-02-21T09:51:39.874Z,99401.41
2019-02-21T09:54:12.537Z,99393.05
2019-02-21T09:56:52.843Z,99393.70
2019-02-21T09:59:20.244Z,99395.14
2019-02-21T10:01:52.588Z,99394.16
2019-02-21T10:04:31.802Z,99389.45
2019-02-21T10:06:59.866Z,99386.56
2019-02-21T10:09:31.986Z,99391.46
2019-02-21T10:12:04.067Z,99383.28
2019-02-21T10:14:36.186Z,99376.73
2019-02-21T10:17:08.351Z,99372.62
2019-02-21T10:19:41.170Z,99378.53
2019-02-21T10:22:13.429Z,99362.36
2019-02-21T10:24:45.881Z,99356.70
2019-02-21T10:27:17.983Z,99357.89
2019-02-21T10:29:50.186Z,99360.69
2019-02-21T10:32:22.543Z,99353.06
2019-02-21T10:34:58.129Z,99357.77
2019-02-21T10:37:30.844Z,99356.89
2019-02-21T10:40:04.527Z,99362.45
2019-02-21T10:42:37.200Z,99368.75
2019-02-21T10:45:15.050Z,99361.91
2019-02-21T10:47:47.745Z,99370.31
2019-02-21T10:50:21.775Z,99368.91
2019-02-21T10:52:55.542Z,99374.85
2019-02-21T10:55:28.233Z,99370.63
2019-02-21T10:58:00.600Z,99375.92
2019-02-21T11:00:35.608Z,99366.34
2019-02-21T11:03:08.280Z,99365.67
2019-02-21T11:05:41.564Z,99359.20
2019-02-21T11:08:16.797Z,99351.14
2019-02-21T11:10:51.410Z,99349.44
2019-02-21T11:13:26.451Z,99348.58
2019-02-21T11:15:59.236Z,99359.09
2019-02-21T11:18:31.652Z,99349.02
2019-02-21T11:21:04.615Z,99357.70
2019-02-21T11:23:38.218Z,99355.17
2019-02-21T11:26:11.330Z,99349.64
2019-02-21T11:28:47.275Z,99348.55
2019-02-21T11:31:20.717Z,99340.10
2019-02-21T11:33:53.591Z,99346.33
2019-02-21T11:36:26.086Z,99349.73
2019-02-21T11:38:59.949Z,99348.27
2019-02-21T11:41:34.823Z,99345.69
2019-02-21T11:44:07.612Z,99340.19
2019-02-21T11:46:39.973Z,99335.30
2019-02-21T11:49:12.993Z,99348.73
2019-02-21T11:51:45.513Z,99342.24
2019-02-21T11:54:26.486Z,99346.71
2019-02-21T11:56:54.807Z,99342.90
2019-02-21T11:59:27.562Z,99338.95
2019-02-21T12:01:59.889Z,99340.91
2019-02-21T12:04:32.341Z,99346.72
2019-02-21T12:07:06.336Z,99339.86
2019-02-21T12:09:40.277Z,99338.10
2019-02-21T12:12:14.446Z,99337.92
2019-02-21T12:14:47.607Z,99334.47
2019-02-21T12:17:20.031Z,99344.06
2019-02-21T12:19:52.413Z,99338.59
2019-02-21T12:22:24.940Z,99335.30
2019-02-21T12:24:57.364Z,99344.13
2019-02-21T12:27:29.717Z,99341.47
2019-02-21T12:30:02.912Z,99341.06
2019-02-21T12:32:35.581Z,99340.84
2019-02-21T12:35:09.776Z,99328.09
2019-02-21T12:37:44.362Z,99334.19
2019-02-21T12:40:18.869Z,99334.76
2019-02-21T12:42:51.550Z,99324.00
2019-02-21T12:45:26.443Z,99332.14
2019-02-21T12:47:57.421Z,99323.45
2019-02-21T12:50:29.465Z,99322.94
2019-02-21T12:53:01.820Z,99310.16
2019-02-21T12:55:35.586Z,99312.08
2019-02-21T12:58:08.652Z,99307.02
2019-02-21T13:00:42.247Z,99304.77
2019-02-21T13:03:17.410Z,99307.46
2019-02-21T13:05:50.139Z,99312.48
2019-02-21T13:08:24.940Z,99315.02
2019-02-21T13:10:57.638Z,99314.81
2019-02-21T13:13:30.158Z,99313.03
2019-02-21T13:16:02.711Z,99309.03
2019-02-21T13:18:35.098Z,99296.33
2019-02-21T13:21:07.474Z,99295.92
2019-02-21T13:23:42.697Z,99299.59
2019-02-21T13:26:14.230Z,99297.23
2019-02-21T13:28:46.663Z,99298.39
2019-02-21T13:31:19.453Z,99299.31
2019-02-21T13:33:51.851Z,99286.27
2019-02-21T13:36:25.089Z,99292.76
2019-02-21T13:38:57.786Z,99299.31
2019-02-21T13:41:30.804Z,99300.61
2019-02-21T13:44:04.498Z,99299.55
2019-02-21T13:46:41.300Z,99301.43
2019-02-21T13:49:14.099Z,99301.91
2019-02-21T13:51:46.468Z,99307.44
2019-02-21T13:54:19.122Z,99304.90
2019-02-21T13:56:51.507Z,99303.57
2019-02-21T13:59:23.854Z,99304.90
2019-02-21T14:01:56.226Z,99301.74
2019-02-21T14:04:28.668Z,99303.66
2019-02-21T14:07:23.774Z,99302.33
2019-02-21T14:09:56.492Z,99297.88
2019-02-21T14:12:29.021Z,99301.02
2019-02-21T14:15:01.520Z,99306.89
2019-02-21T14:17:34.027Z,99301.77
2019-02-21T14:20:07.569Z,99305.97
2019-02-21T14:22:40.258Z,99303.64
2019-02-21T14:25:14.826Z,99304.70
2019-02-21T14:27:47.515Z,99303.95
2019-02-21T14:30:22.519Z,99303.23
2019-02-21T14:32:55.252Z,99305.28
2019-02-21T14:35:28.081Z,99299.58
2019-02-21T14:38:00.441Z,99303.18
2019-02-21T14:40:35.682Z,99309.64
2019-02-21T14:43:08.343Z,99305.08
2019-02-21T14:45:41.106Z,99303.58
2019-02-21T14:48:13.482Z,99306.17
2019-02-21T14:50:45.906Z,99313.98
2019-02-21T14:53:19.234Z,99309.92
2019-02-21T14:55:51.921Z,99310.66
2019-02-21T14:58:28.107Z,99304.25
2019-02-21T15:01:05.192Z,99304.30
2019-02-21T15:03:41.684Z,99300.44
2019-02-21T15:06:14.826Z,99306.91
2019-02-21T15:08:50.441Z,99300.84
2019-02-21T15:11:24.259Z,99299.65
2019-02-21T15:13:56.972Z,99298.68
2019-02-21T15:16:32.077Z,99301.12
2019-02-21T15:19:04.894Z,99298.65
2019-02-21T15:21:37.890Z,99301.28
2019-02-21T15:24:13.017Z,99295.88
2019-02-21T15:26:46.825Z,99297.98
2019-02-21T15:29:19.603Z,99299.39
2019-02-21T15:31:54.686Z,99287.46
2019-02-21T15:34:28.213Z,99289.56
2019-02-21T15:37:01.834Z,99294.52
2019-02-21T15:39:34.658Z,99292.02
2019-02-21T15:42:10.752Z,99297.13
2019-02-21T15:44:45.504Z,99292.07
2019-02-21T15:47:19.485Z,99291.98
2019-02-21T15:49:52.675Z,99296.86
2019-02-21T15:52:25.431Z,99299.19
2019-02-21T15:55:11.452Z,99303.48
2019-02-21T15:57:35.068Z,99306.05
2019-02-21T16:00:11.102Z,99309.48
2019-02-21T16:02:43.824Z,99305.48
2019-02-21T16:05:16.189Z,99303.01
2019-02-21T16:07:52.425Z,99307.72
2019-02-21T16:10:28.870Z,99307.37
2019-02-21T16:13:05.060Z,99317.58
2019-02-21T16:15:38.208Z,99317.74
2019-02-21T16:18:10.759Z,99319.07
2019-02-21T16:20:43.131Z,99321.16
2019-02-21T16:23:15.594Z,99322.27
2019-02-21T16:25:47.746Z,99312.72
2019-02-21T16:28:20.690Z,99312.52
2019-02-21T16:30:53.091Z,99315.11
2019-02-21T16:33:28.610Z,99313.94
2019-02-21T16:36:01.344Z,99312.88
2019-02-21T16:38:34.366Z,99308.83
2019-02-21T16:41:07.645Z,99312.08
2019-02-21T16:43:40.957Z,99315.25
2019-02-21T16:46:13.425Z,99322.73
2019-02-21T16:48:46.498Z,99320.08
2019-02-21T16:51:17.528Z,99328.16
2019-02-21T16:53:52.941Z,99328.48
2019-02-21T16:56:26.653Z,99330.28
2019-02-21T16:58:59.666Z,99331.61
2019-02-21T17:01:32.045Z,99342.20
2019-02-21T17:04:04.605Z,99342.04
2019-02-21T17:06:37.659Z,99351.31
2019-02-21T17:09:14.107Z,99348.94
2019-02-21T17:11:48.758Z,99353.63
2019-02-21T17:14:21.528Z,99355.91
2019-02-21T17:16:54.885Z,99356.27
2019-02-21T17:19:40.585Z,99357.98
2019-02-21T17:22:13.754Z,99354.61
2019-02-21T17:24:46.788Z,99357.49
2019-02-21T17:27:20.146Z,99359.66
2019-02-21T17:29:52.867Z,99360.76
2019-02-21T17:32:36.983Z,99361.70
2019-02-21T17:35:16.002Z,99365.54
2019-02-21T17:37:52.145Z,99367.73
2019-02-21T17:40:25.060Z,99370.37
2019-02-21T17:42:57.567Z,99375.55
2019-02-21T17:45:30.127Z,99367.20
2019-02-21T17:48:02.565Z,99374.55
2019-02-21T17:50:37.150Z,99374.26
2019-02-21T17:53:09.840Z,99377.97
2019-02-21T17:55:44.709Z,99381.55
2019-02-21T17:58:17.477Z,99372.24
2019-02-21T18:00:49.918Z,99375.31
2019-02-21T18:03:24.819Z,99368.85
2019-02-21T18:05:57.910Z,99367.44
2019-02-21T18:08:31.766Z,99369.91
2019-02-21T18:11:04.502Z,99379.62
2019-02-21T18:13:37.334Z,99384.31
2019-02-21T18:16:10.420Z,99383.70
2019-02-21T18:18:43.306Z,99384.53
2019-02-21T18:21:15.718Z,99382.72
2019-02-21T18:23:48.164Z,99377.20
2019-02-21T18:26:24.337Z,99379.96
2019-02-21T18:28:56.952Z,99386.95
2019-02-21T18:31:30.735Z,99390.63
2019-02-21T18:34:03.717Z,99390.58
2019-02-21T18:36:38.108Z,99389.09
2019-02-21T18:39:10.864Z,99394.60
2019-02-21T18:41:54.914Z,99405.76
2019-02-21T18:44:35.182Z,99402.67
2019-02-21T18:47:09.977Z,99399.48
2019-02-21T18:49:42.998Z,99400.11
2019-02-21T18:52:15.401Z,99402.97
2019-02-21T18:54:49.296Z,99407.23
2019-02-21T18:57:22.133Z,99399.37
2019-02-21T18:59:54.831Z,99398.37
2019-02-21T19:02:29.484Z,99389.73
2019-02-21T19:05:03.347Z,99396.55
2019-02-21T19:07:37.236Z,99404.13
2019-02-21T19:10:13.774Z,99393.59
2019-02-21T19:12:48.700Z,99397.33
2019-02-21T19:15:23.036Z,99395.86
2019-02-21T19:17:54.868Z,99389.30
2019-02-21T19:20:27.329Z,99388.39
2019-02-21T19:23:01.160Z,99393.36
2019-02-21T19:25:37.956Z,99395.89
2019-02-21T19:28:13.698Z,99389.89
2019-02-21T19:30:52.906Z,99391.27
2019-02-21T19:33:25.705Z,99391.95
2019-02-21T19:35:58.273Z,99387.02
2019-02-21T19:38:30.407Z,99393.39
2019-02-21T19:41:02.457Z,99396.94
2019-02-21T19:43:35.335Z,99394.93
2019-02-21T19:46:10.880Z,99391.82
2019-02-21T19:48:47.218Z,99394.60
2019-02-21T19:51:37.291Z,99396.34
2019-02-21T19:54:12.528Z,99395.17
2019-02-21T19:56:45.596Z,99398.87
2019-02-21T19:59:21.788Z,99395.39
2019-02-21T20:01:55.391Z,99398.79
2019-02-21T20:04:29.806Z,99404.66
2019-02-21T20:07:04.038Z,99404.98
2019-02-21T20:09:41.896Z,99400.98
2019-02-21T20:12:14.669Z,99403.02
2019-02-21T20:14:47.158Z,99405.09
2019-02-21T20:17:21.883Z,99400.02
2019-02-21T20:19:58.059Z,99404.95
2019-02-21T20:22:32.198Z,99399.87
2019-02-21T20:25:05.203Z,99404.16
2019-02-21T20:27:37.952Z,99397.88
2019-02-21T20:30:14.614Z,99404.70
2019-02-21T20:32:48.355Z,99398.26
2019-02-21T20:35:24.291Z,99399.40
2019-02-21T20:37:57.468Z,99397.93
2019-02-21T20:40:30.354Z,99399.40
2019-02-21T20:43:03.059Z,99396.55
2019-02-21T20:45:36.566Z,99401.84
2019-02-21T20:48:09.645Z,99398.45
2019-02-21T20:50:42.118Z,99395.59
2019-02-21T20:53:17.021Z,99393.77
2019-02-21T20:55:50.112Z,99401.91
2019-02-21T20:58:22.533Z,99412.31
2019-02-21T21:00:55.375Z,99410.52
2019-02-21T21:03:27.863Z,99414.09
2019-02-21T21:06:00.364Z,99410.88
2019-02-21T21:08:42.475Z,99411.34
2019-02-21T21:11:07.253Z,99412.17
2019-02-21T21:13:39.758Z,99415.20
2019-02-21T21:16:12.258Z,99417.74
2019-02-21T21:18:44.710Z,99423.78
2019-02-21T21:21:17.327Z,99427.64
2019-02-21T21:23:49.789Z,99423.45
2019-02-21T21:26:22.602Z,99428.78
2019-02-21T21:28:55.397Z,99425.60
2019-02-21T21:31:28.231Z,99429.35
2019-02-21T21:34:01.130Z,99433.54
2019-02-21T21:36:34.116Z,99427.67
2019-02-21T21:39:06.873Z,99431.56
2019-02-21T21:41:39.243Z,99428.75
2019-02-21T21:44:11.488Z,99423.48
2019-02-21T21:46:43.924Z,99429.32
2019-02-21T21:49:16.419Z,99431.11
2019-02-21T21:51:49.173Z,99427.89
2019-02-21T21:54:21.884Z,99424.03
2019-02-21T21:56:54.798Z,99429.96
2019-02-21T21:59:27.281Z,99430.32
2019-02-21T22:02:00.065Z,99429.56
2019-02-21T22:04:32.444Z,99431.45
2019-02-21T22:07:04.858Z,99432.23
2019-02-21T22:09:37.786Z,99434.96
2019-02-21T22:12:10.317Z,99441.60
2019-02-21T22:14:42.793Z,99442.46
2019-02-21T22:17:15.212Z,99445.47
2019-02-21T22:19:47.673Z,99437.00
2019-02-21T22:22:20.164Z,99441.17
2019-02-21T22:24:52.545Z,99438.98
2019-02-21T22:27:25.076Z,99444.50
2019-02-21T22:29:57.605Z,99438.19
2019-02-21T22:32:30.141Z,99441.05
2019-02-21T22:35:02.508Z,99435.77
2019-02-21T22:37:34.852Z,99437.66
2019-02-21T22:40:16.645Z,99439.52
2019-02-21T22:42:49.404Z,99433.34
2019-02-21T22:45:21.905Z,99438.16
2019-02-21T22:47:54.248Z,99435.79
2019-02-21T22:50:26.996Z,99440.09
2019-02-21T22:52:59.449Z,99430.69
2019-02-21T22:55:46.027Z,99437.99
2019-02-21T22:58:19.234Z,99437.75
2019-02-21T23:01:23.626Z,99433.36
2019-02-21T23:04:23.753Z,99439.02
2019-02-21T23:07:19.205Z,99438.27
2019-02-21T23:09:52.399Z,99439.59
2019-02-21T23:12:24.959Z,99434.44
2019-02-21T23:14:57.411Z,99441.71
2019-02-21T23:17:30.204Z,99447.53
2019-02-21T23:20:02.587Z,99441.05
2019-02-21T23:22:34.856Z,99437.00
2019-02-21T23:25:09.195Z,99435.68
2019-02-21T23:27:42.098Z,99442.24
2019-02-21T23:30:15.817Z,99437.23
2019-02-21T23:32:48.594Z,99437.66
2019-02-21T23:35:22.157Z,99437.44
2019-02-21T23:37:54.973Z,99426.88
2019-02-21T23:40:27.488Z,99417.40
2019-02-21T23:43:00.145Z,99422.09
2019-02-21T23:45:33.250Z,99427.52
2019-02-21T23:48:05.444Z,99424.59
2019-02-21T23:50:38.347Z,99420.98
2019-02-21T23:53:12.238Z,99413.27
2019-02-21T23:55:45.053Z,99417.67
2019-02-21T23:58:17.483Z,99416.57
